Terminal Aerodrome Forecast
Issued by NWS

Home | Current Version | Previous Version | Text Only | Print | Product List | Glossary On
Versions: 1 2 3 4 5 6 7 8 9 10 11 12
546
FTUS44 KBMX 241723
TAFANB
TAF
KANB 241723Z 2418/2518 02002KT P6SM SCT070 BKN100
     FM250100 00000KT P6SM FEW250
     FM251500 08002KT P6SM FEW110=

USA.gov is the U.S. government's official web portal to all federal, state and local government web resources and services.